Time;durP1;ratioP1;P1;durP2;ratioP2;P2;SDS_P1;SDS_P2;PMS_P1;PMS_P2;Temp;Humidity;BMP_temperature;BMP_pressure;BME280_temperature;BME280_humidity;BME280_pressure;Samples;Min_cycle;Max_cycle;Signal;HPM_P1;HPM_P2
2023/10/23 00:01:38;;;;;;;3.53;1.00;;;10.30;85.90;;;;;;4985683;28;20121;-63
2023/10/23 00:04:04;;;;;;;1.33;1.10;;;10.30;86.00;;;;;;4985272;28;20049;-63
2023/10/23 00:06:29;;;;;;;2.35;1.35;;;10.30;85.60;;;;;;4985614;28;20042;-64
2023/10/23 00:08:55;;;;;;;2.95;1.50;;;10.30;85.50;;;;;;4986225;28;20046;-62
2023/10/23 00:11:28;;;;;;;1.60;1.20;;;10.30;85.30;;;;;;4981479;28;20524;-61
2023/10/23 00:13:54;;;;;;;4.60;1.48;;;10.30;85.30;;;;;;4985266;28;20042;-63
2023/10/23 00:16:21;;;;;;;4.40;1.38;;;10.30;85.10;;;;;;4986389;28;20037;-61
2023/10/23 00:18:48;;;;;;;1.70;1.27;;;10.30;85.10;;;;;;4986099;28;20129;-62
2023/10/23 00:21:14;;;;;;;1.92;1.45;;;10.30;85.10;;;;;;4986116;28;20343;-63
2023/10/23 00:23:39;;;;;;;3.03;1.40;;;10.30;85.00;;;;;;4985364;28;20057;-62
2023/10/23 00:26:06;;;;;;;2.38;1.58;;;10.20;84.80;;;;;;4986036;28;20518;-63
2023/10/23 00:28:32;;;;;;;2.33;1.60;;;10.30;84.80;;;;;;4985142;28;20042;-61
2023/10/23 00:30:58;;;;;;;1.95;1.63;;;10.20;84.80;;;;;;4985168;28;20038;-63
2023/10/23 00:33:24;;;;;;;2.78;1.95;;;10.20;84.80;;;;;;4984724;28;20433;-63
2023/10/23 00:35:49;;;;;;;2.08;1.55;;;10.20;84.80;;;;;;4985986;28;20039;-63
2023/10/23 00:38:15;;;;;;;6.57;1.92;;;10.10;84.70;;;;;;4986040;28;20038;-62
2023/10/23 00:40:41;;;;;;;1.50;1.40;;;10.10;84.80;;;;;;4985145;28;20142;-62
2023/10/23 00:43:22;;;;;;;3.20;1.60;;;10.10;84.80;;;;;;4985621;28;20438;-63
2023/10/23 00:45:48;;;;;;;3.40;1.40;;;10.10;85.10;;;;;;4985281;28;20042;-62
2023/10/23 00:48:14;;;;;;;2.35;1.48;;;10.00;84.80;;;;;;4985452;28;20061;-62
2023/10/23 00:50:39;;;;;;;2.65;1.70;;;9.90;84.80;;;;;;4984685;28;20076;-63
2023/10/23 00:53:05;;;;;;;1.75;1.60;;;9.90;85.00;;;;;;4987027;28;20058;-63
2023/10/23 00:55:31;;;;;;;2.92;1.70;;;9.90;85.30;;;;;;4988791;28;20046;-63
2023/10/23 00:57:57;;;;;;;1.73;1.60;;;9.80;85.50;;;;;;4989373;28;20188;-61
2023/10/23 01:00:23;;;;;;;4.63;1.50;;;9.80;85.60;;;;;;4988155;28;20042;-62
2023/10/23 01:02:50;;;;;;;2.90;1.40;;;9.80;85.70;;;;;;4987495;28;20049;-63
2023/10/23 01:05:15;;;;;;;1.58;1.38;;;9.80;85.80;;;;;;4988616;28;20030;-62
2023/10/23 01:07:41;;;;;;;2.45;1.20;;;9.80;85.70;;;;;;4988605;28;20671;-62
2023/10/23 01:10:07;;;;;;;1.55;0.90;;;9.80;85.70;;;;;;4989014;28;20039;-61
2023/10/23 01:12:33;;;;;;;1.10;1.00;;;9.80;85.70;;;;;;4985086;28;20050;-60
2023/10/23 01:14:58;;;;;;;1.58;0.95;;;9.80;85.60;;;;;;4989378;28;20031;-63
2023/10/23 01:17:24;;;;;;;2.25;1.25;;;9.80;85.70;;;;;;4987760;28;20076;-63
2023/10/23 01:19:50;;;;;;;5.00;1.02;;;9.80;85.80;;;;;;4989395;28;20422;-61
2023/10/23 01:22:15;;;;;;;1.17;1.08;;;9.80;85.60;;;;;;4988885;28;20065;-63
2023/10/23 01:24:43;;;;;;;1.20;1.10;;;9.80;85.50;;;;;;4988047;28;20062;-63
2023/10/23 01:27:09;;;;;;;2.42;1.02;;;9.90;85.30;;;;;;4988839;28;20478;-63
2023/10/23 01:29:34;;;;;;;1.33;1.10;;;9.80;85.10;;;;;;4988585;28;20062;-62
2023/10/23 01:32:00;;;;;;;4.30;1.20;;;9.80;85.00;;;;;;4987673;28;20092;-61
2023/10/23 01:34:25;;;;;;;1.33;1.20;;;9.80;84.90;;;;;;4988788;28;20129;-61
2023/10/23 01:36:51;;;;;;;2.75;1.40;;;9.70;84.80;;;;;;4987062;28;20043;-62
2023/10/23 01:39:16;;;;;;;1.80;0.90;;;9.70;84.80;;;;;;4989560;28;20073;-63
2023/10/23 01:41:43;;;;;;;2.72;1.35;;;9.60;84.80;;;;;;4988527;28;20509;-63
2023/10/23 01:44:08;;;;;;;1.73;1.30;;;9.60;85.00;;;;;;4988051;28;20520;-61
2023/10/23 01:46:34;;;;;;;1.55;1.30;;;9.50;85.00;;;;;;4985306;28;20046;-62
2023/10/23 01:49:00;;;;;;;1.77;1.27;;;9.50;85.30;;;;;;4987016;28;20050;-61
2023/10/23 01:51:26;;;;;;;3.20;1.20;;;9.40;85.40;;;;;;4988098;28;20058;-63
2023/10/23 01:53:52;;;;;;;1.95;1.45;;;9.40;85.60;;;;;;4987616;28;20669;-63
2023/10/23 01:56:17;;;;;;;1.35;1.23;;;9.30;85.80;;;;;;4988528;28;20086;-63
2023/10/23 01:58:43;;;;;;;3.47;1.15;;;9.30;86.00;;;;;;4988586;28;20502;-62
2023/10/23 02:01:19;;;;;;;1.40;1.20;;;9.30;86.20;;;;;;4989215;28;20034;-63
2023/10/23 02:03:44;;;;;;;2.10;1.20;;;9.30;86.70;;;;;;4987569;28;20070;-62
2023/10/23 02:06:10;;;;;;;1.17;1.08;;;9.30;86.40;;;;;;4987439;28;20035;-63
2023/10/23 02:08:35;;;;;;;1.65;1.20;;;9.40;86.40;;;;;;4987157;28;20042;-63
2023/10/23 02:11:01;;;;;;;2.03;1.15;;;9.30;86.30;;;;;;4985077;28;20528;-63
2023/10/23 02:13:26;;;;;;;2.47;1.30;;;9.30;86.50;;;;;;4986736;28;20126;-63
2023/10/23 02:15:52;;;;;;;1.58;1.27;;;9.30;86.70;;;;;;4988468;28;20073;-63
2023/10/23 02:18:17;;;;;;;1.50;1.17;;;9.30;86.70;;;;;;4988137;28;20057;-62
2023/10/23 02:20:43;;;;;;;3.00;1.58;;;9.40;86.70;;;;;;4986844;28;20030;-61
2023/10/23 02:23:09;;;;;;;2.92;1.30;;;9.30;86.70;;;;;;4987241;28;20528;-62
2023/10/23 02:25:34;;;;;;;2.50;1.30;;;9.30;86.70;;;;;;4987866;28;20038;-62
2023/10/23 02:28:00;;;;;;;2.72;1.25;;;9.30;87.10;;;;;;4987729;28;20038;-62
2023/10/23 02:30:25;;;;;;;1.40;1.30;;;9.30;86.80;;;;;;4986704;28;20045;-62
2023/10/23 02:32:51;;;;;;;2.10;1.40;;;9.30;86.90;;;;;;4986064;28;20581;-62
2023/10/23 02:35:16;;;;;;;1.88;1.30;;;9.30;87.10;;;;;;4987010;28;20045;-63
2023/10/23 02:37:42;;;;;;;6.00;1.50;;;9.20;87.10;;;;;;4987013;28;20331;-63
2023/10/23 02:40:08;;;;;;;3.35;1.40;;;9.20;87.40;;;;;;4987419;28;20068;-63
2023/10/23 02:42:34;;;;;;;2.40;1.60;;;9.20;87.60;;;;;;4985999;28;20057;-63
2023/10/23 02:44:59;;;;;;;2.35;1.60;;;9.20;87.80;;;;;;4987328;28;20434;-60
2023/10/23 02:47:25;;;;;;;1.27;1.17;;;9.30;87.90;;;;;;4986768;28;20104;-63
2023/10/23 02:49:53;;;;;;;2.17;1.50;;;9.30;87.90;;;;;;4987688;28;20370;-63
2023/10/23 02:52:19;;;;;;;2.33;1.23;;;9.30;87.90;;;;;;4986995;28;20046;-62
2023/10/23 02:54:44;;;;;;;2.30;1.50;;;9.30;87.60;;;;;;4986197;28;20042;-62
2023/10/23 02:57:10;;;;;;;1.42;1.33;;;9.30;87.40;;;;;;4987332;28;20042;-63
2023/10/23 02:59:36;;;;;;;3.80;1.70;;;9.30;87.40;;;;;;4985902;28;20043;-62
2023/10/23 03:02:01;;;;;;;1.85;1.42;;;9.30;87.40;;;;;;4986466;28;20062;-62
2023/10/23 03:04:27;;;;;;;2.20;1.45;;;9.30;87.40;;;;;;4985681;28;20038;-63
2023/10/23 03:06:53;;;;;;;2.08;1.50;;;9.30;87.60;;;;;;4986963;28;20053;-62
2023/10/23 03:09:19;;;;;;;1.77;1.45;;;9.30;87.60;;;;;;4986697;28;20033;-63
2023/10/23 03:11:45;;;;;;;2.22;1.45;;;9.30;87.60;;;;;;4983407;28;20038;-62
2023/10/23 03:14:10;;;;;;;2.63;1.50;;;9.30;87.50;;;;;;4986665;28;20038;-62
2023/10/23 03:16:36;;;;;;;1.70;1.60;;;9.30;87.30;;;;;;4984084;28;20108;-62
2023/10/23 03:19:02;;;;;;;1.98;1.65;;;9.30;87.10;;;;;;4986741;28;20038;-63
2023/10/23 03:21:27;;;;;;;2.30;1.63;;;9.30;86.90;;;;;;4986785;28;20045;-62
2023/10/23 03:23:53;;;;;;;1.85;1.75;;;9.30;87.00;;;;;;4986890;28;20465;-63
2023/10/23 03:26:18;;;;;;;4.35;1.90;;;9.30;86.90;;;;;;4986826;28;20526;-63
2023/10/23 03:28:44;;;;;;;2.78;2.00;;;9.20;86.90;;;;;;4985986;28;20045;-63
2023/10/23 03:31:10;;;;;;;3.63;1.95;;;9.20;88.00;;;;;;4985047;28;20046;-63
2023/10/23 03:33:35;;;;;;;1.95;1.73;;;9.20;87.30;;;;;;4986640;28;20030;-63
2023/10/23 03:36:01;;;;;;;1.85;1.73;;;9.10;87.40;;;;;;4987052;28;20034;-63
2023/10/23 03:38:26;;;;;;;2.10;1.55;;;9.10;87.40;;;;;;4986648;28;20114;-63
2023/10/23 03:40:57;;;;;;;1.98;1.60;;;9.10;87.40;;;;;;4986851;28;20030;-63
2023/10/23 03:43:23;;;;;;;3.13;1.75;;;9.20;87.10;;;;;;4986834;28;20040;-63
2023/10/23 03:45:48;;;;;;;2.45;1.60;;;9.10;86.80;;;;;;4986858;28;20467;-63
2023/10/23 03:48:14;;;;;;;2.03;1.80;;;9.10;86.70;;;;;;4987111;28;20045;-62
2023/10/23 03:50:39;;;;;;;2.70;1.60;;;9.10;86.70;;;;;;4986288;28;20214;-62
2023/10/23 03:53:05;;;;;;;3.88;1.70;;;9.10;86.50;;;;;;4986855;28;20041;-62
2023/10/23 03:55:35;;;;;;;4.22;2.00;;;9.10;86.50;;;;;;4986839;28;20406;-63
2023/10/23 03:58:00;;;;;;;1.77;1.67;;;9.10;86.50;;;;;;4986876;28;20053;-63
2023/10/23 04:00:26;;;;;;;2.50;2.03;;;9.10;86.40;;;;;;4985673;28;20034;-62
2023/10/23 04:02:52;;;;;;;2.72;1.55;;;9.10;86.40;;;;;;4986639;28;20030;-63
2023/10/23 04:05:17;;;;;;;1.80;1.70;;;9.00;86.40;;;;;;4985049;28;20081;-62
2023/10/23 04:07:43;;;;;;;2.60;1.70;;;9.00;86.50;;;;;;4985444;28;20034;-62
2023/10/23 04:10:09;;;;;;;2.78;1.80;;;9.00;86.50;;;;;;4984971;28;20035;-62
2023/10/23 04:12:34;;;;;;;2.05;1.85;;;9.00;86.40;;;;;;4982263;28;20070;-63
2023/10/23 04:15:00;;;;;;;2.78;1.70;;;9.00;86.40;;;;;;4983981;28;20338;-62
2023/10/23 04:17:25;;;;;;;1.98;1.75;;;8.90;86.20;;;;;;4985629;28;20572;-61
2023/10/23 04:19:51;;;;;;;2.08;1.70;;;8.90;86.20;;;;;;4986296;28;20034;-62
2023/10/23 04:22:16;;;;;;;3.20;2.00;;;8.90;86.10;;;;;;4985691;28;20064;-62
2023/10/23 04:24:42;;;;;;;2.13;1.92;;;8.90;86.00;;;;;;4984141;28;20499;-62
2023/10/23 04:27:08;;;;;;;2.20;2.00;;;8.80;85.90;;;;;;4984890;28;20402;-63
2023/10/23 04:29:33;;;;;;;2.80;2.30;;;8.80;86.10;;;;;;4984671;28;20035;-62
2023/10/23 04:31:59;;;;;;;2.72;2.13;;;8.80;86.40;;;;;;4984962;28;20053;-61
2023/10/23 04:34:24;;;;;;;3.83;2.30;;;8.70;86.50;;;;;;4986262;28;20121;-62
2023/10/23 04:36:50;;;;;;;4.93;2.60;;;8.70;86.40;;;;;;4986019;28;20168;-62
2023/10/23 04:39:15;;;;;;;5.60;2.70;;;8.70;86.40;;;;;;4986661;28;20046;-61
2023/10/23 04:41:41;;;;;;;6.70;3.47;;;8.70;86.50;;;;;;4986553;28;20034;-63
2023/10/23 04:44:07;;;;;;;4.78;3.22;;;8.60;86.50;;;;;;4986164;28;20085;-62
2023/10/23 04:46:32;;;;;;;4.10;3.05;;;8.60;86.60;;;;;;4985750;28;20057;-63
2023/10/23 04:48:58;;;;;;;3.80;2.58;;;8.60;86.70;;;;;;4986303;28;20085;-62
2023/10/23 04:51:23;;;;;;;2.55;2.17;;;8.60;86.90;;;;;;4986063;28;20038;-61
2023/10/23 04:53:49;;;;;;;3.83;2.78;;;8.50;86.90;;;;;;4986135;28;20030;-62
2023/10/23 04:56:14;;;;;;;5.35;2.90;;;8.50;87.20;;;;;;4986254;28;20032;-63
2023/10/23 04:58:40;;;;;;;6.28;3.10;;;8.50;87.10;;;;;;4985462;28;20045;-62
2023/10/23 05:01:14;;;;;;;10.65;3.45;;;8.50;87.10;;;;;;4986102;28;20117;-63
2023/10/23 05:03:39;;;;;;;7.63;3.40;;;8.50;88.00;;;;;;4985718;28;20128;-61
2023/10/23 05:06:05;;;;;;;32.33;3.88;;;8.40;87.20;;;;;;4986367;28;20062;-62
2023/10/23 05:08:31;;;;;;;17.58;3.80;;;8.40;87.40;;;;;;4985679;28;20030;-62
2023/10/23 05:11:07;;;;;;;11.05;3.97;;;8.40;87.60;;;;;;4983578;28;20494;-62
2023/10/23 05:13:33;;;;;;;18.17;4.10;;;8.40;88.10;;;;;;4985457;28;20045;-62
2023/10/23 05:16:04;;;;;;;11.43;3.85;;;8.40;88.10;;;;;;4986299;28;20414;-62
2023/10/23 05:18:30;;;;;;;9.13;3.60;;;8.40;88.50;;;;;;4985460;28;20043;-62
2023/10/23 05:20:56;;;;;;;15.85;4.65;;;8.40;88.40;;;;;;4986086;28;20042;-62
2023/10/23 05:23:21;;;;;;;6.03;4.40;;;8.40;88.50;;;;;;4985541;28;20026;-62
2023/10/23 05:25:48;;;;;;;5.93;3.90;;;8.40;88.30;;;;;;4985827;28;20030;-62
2023/10/23 05:28:13;;;;;;;5.43;3.40;;;8.40;88.50;;;;;;4986055;28;20517;-62
2023/10/23 05:30:39;;;;;;;22.25;3.90;;;8.40;89.30;;;;;;4985186;28;20055;-62
2023/10/23 05:33:05;;;;;;;17.52;3.45;;;8.50;88.50;;;;;;4984571;28;20397;-61
2023/10/23 05:35:30;;;;;;;9.30;3.58;;;8.40;88.30;;;;;;4985858;28;20040;-61
2023/10/23 05:37:56;;;;;;;25.73;3.53;;;8.50;88.10;;;;;;4985674;28;20538;-62
2023/10/23 05:40:22;;;;;;;4.47;3.15;;;8.50;88.20;;;;;;4988095;28;20037;-63
2023/10/23 05:42:47;;;;;;;8.85;4.70;;;8.50;88.30;;;;;;4988545;28;20462;-63
2023/10/23 05:45:13;;;;;;;23.92;4.60;;;8.40;88.40;;;;;;4989011;28;20084;-61
2023/10/23 05:47:38;;;;;;;12.07;5.05;;;8.40;88.60;;;;;;4989078;28;20034;-62
2023/10/23 05:50:04;;;;;;;10.65;4.90;;;8.50;88.70;;;;;;4989306;28;20308;-62
2023/10/23 05:52:30;;;;;;;14.20;4.50;;;8.50;88.80;;;;;;4988369;28;20160;-63
2023/10/23 05:54:55;;;;;;;37.47;5.85;;;8.50;88.70;;;;;;4989069;28;20037;-61
2023/10/23 05:57:21;;;;;;;17.25;6.40;;;8.50;88.50;;;;;;4989173;28;20042;-61
2023/10/23 05:59:47;;;;;;;15.50;6.30;;;8.50;88.30;;;;;;4989153;28;20109;-62
2023/10/23 06:02:12;;;;;;;17.77;4.25;;;8.50;88.30;;;;;;4989041;28;20498;-60
2023/10/23 06:04:41;;;;;;;16.73;3.28;;;8.50;88.40;;;;;;4987986;28;20438;-62
2023/10/23 06:07:07;;;;;;;20.52;3.00;;;8.50;88.40;;;;;;4988901;28;20049;-61
2023/10/23 06:09:32;;;;;;;41.67;3.17;;;8.50;88.30;;;;;;4988515;28;20034;-62
2023/10/23 06:11:58;;;;;;;14.30;2.80;;;8.50;88.00;;;;;;4985505;28;20072;-62
2023/10/23 06:14:24;;;;;;;36.17;3.95;;;8.50;87.90;;;;;;4988526;28;20069;-62
2023/10/23 06:16:50;;;;;;;21.35;3.10;;;8.40;88.00;;;;;;4988454;28;20046;-61
2023/10/23 06:19:16;;;;;;;44.47;3.40;;;8.40;88.10;;;;;;4988973;28;20046;-62
2023/10/23 06:21:41;;;;;;;17.02;3.33;;;8.30;88.40;;;;;;4988599;28;20034;-62
2023/10/23 06:24:07;;;;;;;29.92;3.00;;;8.20;88.60;;;;;;4988048;28;20058;-62
2023/10/23 06:26:32;;;;;;;21.05;2.53;;;8.20;88.70;;;;;;4987936;28;20106;-62
2023/10/23 06:28:59;;;;;;;21.00;2.88;;;8.20;88.80;;;;;;4988435;28;20405;-62
2023/10/23 06:31:24;;;;;;;13.27;2.20;;;8.10;88.80;;;;;;4987537;28;20464;-61
2023/10/23 06:33:51;;;;;;;10.38;2.20;;;8.10;89.00;;;;;;4988108;28;20038;-61
2023/10/23 06:36:17;;;;;;;2.75;2.35;;;8.00;89.20;;;;;;4988764;28;20123;-61
2023/10/23 06:38:42;;;;;;;2.80;2.50;;;8.00;89.50;;;;;;4987392;28;20117;-62
2023/10/23 06:41:08;;;;;;;3.15;2.50;;;8.00;89.90;;;;;;4988416;28;20049;-61
2023/10/23 06:43:37;;;;;;;3.95;2.63;;;8.00;90.00;;;;;;4987885;28;20042;-62
2023/10/23 06:46:03;;;;;;;2.67;2.47;;;8.00;90.10;;;;;;4988065;28;20046;-62
2023/10/23 06:48:32;;;;;;;4.63;2.60;;;8.10;90.20;;;;;;4987556;28;20104;-62
2023/10/23 06:50:58;;;;;;;3.63;2.95;;;8.20;90.30;;;;;;4987348;28;20042;-62
2023/10/23 06:53:24;;;;;;;3.55;3.20;;;8.20;90.30;;;;;;4987302;28;20349;-62
2023/10/23 06:55:51;;;;;;;5.88;3.58;;;8.30;90.40;;;;;;4988087;28;20030;-61
2023/10/23 06:58:18;;;;;;;3.38;3.00;;;8.30;90.40;;;;;;4988362;28;20038;-62
2023/10/23 07:00:44;;;;;;;3.33;3.03;;;8.40;90.40;;;;;;4987345;28;20030;-62
2023/10/23 07:03:10;;;;;;;4.95;2.90;;;8.50;90.40;;;;;;4988298;28;20046;-65
2023/10/23 07:05:37;;;;;;;5.00;3.38;;;8.50;90.40;;;;;;4995351;28;20138;-63
2023/10/23 07:08:03;;;;;;;4.18;3.33;;;8.60;90.40;;;;;;4987824;28;20095;-63
2023/10/23 07:10:32;;;;;;;4.47;3.42;;;8.60;90.40;;;;;;4986071;28;20066;-63
2023/10/23 07:12:58;;;;;;;3.67;3.15;;;8.70;90.50;;;;;;4989414;28;20057;-62
2023/10/23 07:15:23;;;;;;;4.88;3.60;;;8.80;90.50;;;;;;4989058;28;20522;-62
2023/10/23 07:17:49;;;;;;;4.82;3.60;;;8.80;90.60;;;;;;4988939;28;20035;-62
2023/10/23 07:20:17;;;;;;;4.78;3.55;;;8.90;90.60;;;;;;4988248;28;20034;-61
2023/10/23 07:22:43;;;;;;;6.00;3.65;;;9.00;90.50;;;;;;4987134;28;20034;-62
2023/10/23 07:25:12;;;;;;;5.18;3.70;;;9.00;90.50;;;;;;4987564;28;20506;-62
2023/10/23 07:27:39;;;;;;;8.32;3.70;;;9.10;90.50;;;;;;4987244;28;20113;-62
2023/10/23 07:30:05;;;;;;;5.70;3.60;;;9.10;90.60;;;;;;4987578;28;20034;-61
2023/10/23 07:32:30;;;;;;;5.75;3.58;;;9.20;90.70;;;;;;4986370;28;20036;-61
2023/10/23 07:34:56;;;;;;;8.98;3.53;;;9.30;90.70;;;;;;4987502;28;20034;-62
2023/10/23 07:37:22;;;;;;;6.25;3.88;;;9.30;90.70;;;;;;4987762;28;20462;-62
2023/10/23 07:39:48;;;;;;;5.88;3.58;;;9.40;90.70;;;;;;4987501;28;20030;-60
2023/10/23 07:42:15;;;;;;;7.22;4.20;;;9.50;90.80;;;;;;4986810;28;20034;-60
2023/10/23 07:44:41;;;;;;;5.32;3.83;;;9.60;90.80;;;;;;4986192;28;20030;-62
2023/10/23 07:47:07;;;;;;;5.07;4.05;;;9.60;90.80;;;;;;4987517;28;20030;-63
2023/10/23 07:49:33;;;;;;;6.85;4.38;;;9.70;90.80;;;;;;4986867;28;20106;-61
2023/10/23 07:51:58;;;;;;;5.20;3.90;;;9.80;90.80;;;;;;4987190;28;20061;-61
2023/10/23 07:54:24;;;;;;;6.78;4.28;;;9.80;90.70;;;;;;4986824;28;20113;-61
2023/10/23 07:56:49;;;;;;;6.10;4.30;;;9.80;90.60;;;;;;4986469;28;20030;-63
2023/10/23 07:59:17;;;;;;;7.05;4.10;;;9.90;90.60;;;;;;4987070;28;20457;-62
2023/10/23 08:01:42;;;;;;;5.45;3.80;;;10.00;90.60;;;;;;4984346;28;20121;-60
2023/10/23 08:04:08;;;;;;;7.82;3.83;;;10.00;90.60;;;;;;4986896;28;20117;-62
2023/10/23 08:06:34;;;;;;;7.28;4.13;;;10.00;90.60;;;;;;4986949;28;20034;-62
2023/10/23 08:08:59;;;;;;;5.22;4.05;;;10.10;90.60;;;;;;4988269;28;20410;-63
2023/10/23 08:11:25;;;;;;;5.63;3.72;;;10.10;90.70;;;;;;4983743;28;20037;-62
2023/10/23 08:13:51;;;;;;;6.80;4.60;;;10.20;90.70;;;;;;4987622;28;20034;-62
2023/10/23 08:16:16;;;;;;;7.43;4.25;;;10.20;90.80;;;;;;4988146;28;20041;-62
2023/10/23 08:18:42;;;;;;;6.00;4.13;;;10.30;90.70;;;;;;4987006;28;20060;-61
2023/10/23 08:21:12;;;;;;;6.55;4.65;;;10.30;90.70;;;;;;4988098;28;20046;-63
2023/10/23 08:23:39;;;;;;;9.00;4.80;;;10.40;91.00;;;;;;4987584;28;20062;-62
2023/10/23 08:26:04;;;;;;;7.57;5.20;;;10.40;91.00;;;;;;4986715;28;20533;-60
2023/10/23 08:28:30;;;;;;;6.20;5.30;;;10.50;91.10;;;;;;4986692;28;20034;-61
2023/10/23 08:30:56;;;;;;;7.68;4.60;;;10.50;91.20;;;;;;4987861;28;20602;-61
2023/10/23 08:33:21;;;;;;;5.00;4.38;;;10.60;91.20;;;;;;4985802;28;20089;-61
2023/10/23 08:35:47;;;;;;;6.32;4.82;;;10.60;91.10;;;;;;4987843;28;20541;-62
2023/10/23 08:38:12;;;;;;;6.80;4.90;;;10.70;91.20;;;;;;4987649;28;20435;-62
2023/10/23 08:40:38;;;;;;;5.72;4.90;;;10.80;91.20;;;;;;4986817;28;20038;-63
2023/10/23 08:43:05;;;;;;;5.88;4.57;;;10.90;91.10;;;;;;4987337;28;20320;-61
2023/10/23 08:45:31;;;;;;;6.63;4.93;;;10.90;91.00;;;;;;4987256;28;20118;-60
2023/10/23 08:47:57;;;;;;;6.68;4.45;;;11.00;91.00;;;;;;4987481;28;20468;-61
2023/10/23 08:50:24;;;;;;;4.60;4.20;;;11.00;90.90;;;;;;4987178;28;20617;-61
2023/10/23 08:52:58;;;;;;;6.78;4.82;;;11.10;90.90;;;;;;4987146;28;20600;-62
2023/10/23 08:55:26;;;;;;;5.28;4.45;;;11.10;91.00;;;;;;4987245;28;20313;-62
2023/10/23 08:57:53;;;;;;;5.30;4.32;;;11.20;91.00;;;;;;4987546;28;20039;-60
2023/10/23 09:00:23;;;;;;;5.22;4.20;;;11.20;91.00;;;;;;4987484;28;20065;-61
2023/10/23 09:02:52;;;;;;;5.45;4.45;;;11.30;91.00;;;;;;4986676;28;20054;-61
2023/10/23 09:05:18;;;;;;;6.60;4.40;;;11.40;90.90;;;;;;4987031;28;20041;-61
2023/10/23 09:07:44;;;;;;;7.50;4.22;;;11.40;90.80;;;;;;4986736;28;20030;-61
2023/10/23 09:10:10;;;;;;;4.45;3.92;;;11.50;90.80;;;;;;4986564;28;20034;-61
2023/10/23 09:12:37;;;;;;;5.60;4.13;;;11.50;90.80;;;;;;4985087;28;20027;-62
2023/10/23 09:15:21;;;;;;;5.32;4.22;;;11.60;90.80;;;;;;4989403;28;20034;-61
2023/10/23 09:17:49;;;;;;;4.82;4.20;;;11.70;90.90;;;;;;4990922;28;20037;-62
2023/10/23 09:20:26;;;;;;;5.63;4.38;;;11.70;90.60;;;;;;4991064;28;20053;-63
2023/10/23 09:22:53;;;;;;;4.82;4.10;;;11.70;90.60;;;;;;4990530;28;20034;-63
2023/10/23 09:25:24;;;;;;;5.40;4.15;;;11.80;90.60;;;;;;4990573;28;20039;-60
2023/10/23 09:27:51;;;;;;;4.53;4.10;;;11.90;90.60;;;;;;4990906;28;20498;-62
2023/10/23 09:30:25;;;;;;;7.57;4.35;;;11.90;90.50;;;;;;4990268;28;20050;-63
2023/10/23 09:32:51;;;;;;;;;;;11.90;90.50;;;;;;4990027;28;20034;-62
2023/10/23 09:35:18;;;;;;;8.75;4.30;;;12.00;90.70;;;;;;4990980;28;19917;-62
2023/10/23 09:37:43;;;;;;;4.65;4.15;;;12.00;90.30;;;;;;4989793;28;20027;-62
2023/10/23 09:40:11;;;;;;;4.95;4.20;;;12.10;90.20;;;;;;4990303;28;20073;-62
2023/10/23 09:42:37;;;;;;;4.18;3.78;;;12.10;90.30;;;;;;4989578;28;20040;-62
2023/10/23 09:45:04;;;;;;;4.57;3.67;;;12.00;90.30;;;;;;4989348;28;20050;-62
2023/10/23 09:47:34;;;;;;;4.63;3.90;;;12.10;90.30;;;;;;4990193;28;20041;-63
2023/10/23 09:50:01;;;;;;;4.28;3.80;;;12.10;90.30;;;;;;4989935;28;20726;-60
2023/10/23 09:52:27;;;;;;;4.57;4.13;;;12.10;90.30;;;;;;4989805;28;20121;-61
2023/10/23 09:55:00;;;;;;;5.97;4.35;;;12.20;90.40;;;;;;4989820;28;20109;-62
2023/10/23 09:57:35;;;;;;;5.22;4.38;;;12.20;90.40;;;;;;4990147;28;20126;-63
2023/10/23 10:00:05;;;;;;;5.57;4.38;;;12.30;90.40;;;;;;4989468;28;20042;-62
2023/10/23 10:02:34;;;;;;;4.90;4.40;;;12.40;90.40;;;;;;4989588;28;20073;-62
2023/10/23 10:05:06;;;;;;;4.53;4.13;;;12.40;90.30;;;;;;4989863;28;20043;-63
2023/10/23 10:07:36;;;;;;;4.90;4.40;;;12.40;90.30;;;;;;4990184;28;20042;-62
2023/10/23 10:10:05;;;;;;;6.63;4.35;;;12.50;90.20;;;;;;4989931;28;20122;-62
2023/10/23 10:12:34;;;;;;;5.07;4.43;;;12.60;90.10;;;;;;4987158;28;20418;-62
2023/10/23 10:15:01;;;;;;;5.40;4.22;;;12.50;90.10;;;;;;4989303;28;20040;-63
2023/10/23 10:17:28;;;;;;;4.70;4.18;;;12.60;90.00;;;;;;4989187;28;20327;-62
2023/10/23 10:19:56;;;;;;;4.65;4.22;;;12.60;90.00;;;;;;4989451;28;20506;-60
2023/10/23 10:22:28;;;;;;;4.80;4.30;;;12.60;90.10;;;;;;4989350;28;20529;-61
2023/10/23 10:24:57;;;;;;;4.60;4.20;;;12.60;90.20;;;;;;4989570;28;20038;-63
2023/10/23 10:27:23;;;;;;;5.47;3.92;;;12.60;90.20;;;;;;4988914;28;20122;-61
2023/10/23 10:29:51;;;;;;;4.65;4.28;;;12.70;90.20;;;;;;4989661;28;20049;-62
2023/10/23 10:32:17;;;;;;;5.60;3.60;;;12.80;90.00;;;;;;4988459;28;20038;-62
2023/10/23 10:34:45;;;;;;;6.97;4.35;;;12.80;90.10;;;;;;4988430;28;20081;-61
2023/10/23 10:37:11;;;;;;;4.88;3.65;;;12.80;90.20;;;;;;4989707;28;20045;-62
2023/10/23 10:40:03;;;;;;;4.72;3.83;;;13.00;90.20;;;;;;4989234;28;20105;-63
2023/10/23 10:42:29;;;;;;;4.60;3.97;;;13.00;90.10;;;;;;4988667;28;20038;-63
2023/10/23 10:44:54;;;;;;;4.22;3.83;;;13.10;90.10;;;;;;4989404;28;20046;-62
2023/10/23 10:47:32;;;;;;;3.85;3.55;;;13.10;89.90;;;;;;4989799;28;20038;-63
2023/10/23 10:49:57;;;;;;;4.47;4.00;;;13.20;89.80;;;;;;4989447;28;20042;-62
2023/10/23 10:52:30;;;;;;;4.40;4.00;;;13.20;89.50;;;;;;4989608;28;20726;-63
2023/10/23 10:54:56;;;;;;;4.40;3.83;;;13.30;89.10;;;;;;4988258;28;20398;-61
2023/10/23 10:57:22;;;;;;;4.20;3.80;;;13.30;88.80;;;;;;4988987;28;20517;-63
2023/10/23 10:59:53;;;;;;;4.38;3.70;;;13.30;89.00;;;;;;4989200;28;20058;-61
2023/10/23 11:02:19;;;;;;;5.05;3.75;;;13.30;89.20;;;;;;4989121;28;20031;-61
2023/10/23 11:04:45;;;;;;;4.40;3.70;;;13.40;89.20;;;;;;4987998;28;20092;-60
2023/10/23 11:07:10;;;;;;;5.38;4.10;;;13.50;89.00;;;;;;4989155;28;20030;-62
2023/10/23 11:09:36;;;;;;;5.20;4.10;;;13.50;88.70;;;;;;4988377;28;20133;-63
2023/10/23 11:12:02;;;;;;;4.75;4.15;;;13.50;88.60;;;;;;4986156;28;20499;-62
2023/10/23 11:14:27;;;;;;;4.45;4.05;;;13.60;88.70;;;;;;4987962;28;20034;-63
2023/10/23 11:16:53;;;;;;;4.35;3.85;;;13.60;88.50;;;;;;4988942;28;20061;-62
2023/10/23 11:19:18;;;;;;;4.85;3.63;;;13.70;88.40;;;;;;4988868;28;20054;-63
2023/10/23 11:21:44;;;;;;;5.40;3.90;;;13.70;88.10;;;;;;4988376;28;20081;-63
2023/10/23 11:24:09;;;;;;;6.25;4.30;;;13.70;87.80;;;;;;4988297;28;20080;-62
2023/10/23 11:26:35;;;;;;;4.90;4.40;;;13.70;87.60;;;;;;4987774;28;20038;-62
2023/10/23 11:29:01;;;;;;;5.32;4.53;;;13.70;87.60;;;;;;4988648;28;20049;-63
2023/10/23 11:31:26;;;;;;;4.60;4.20;;;13.70;87.60;;;;;;4988262;28;20076;-61
2023/10/23 11:33:54;;;;;;;4.63;3.70;;;13.70;87.50;;;;;;4987187;28;20097;-63
2023/10/23 11:36:21;;;;;;;5.07;4.32;;;13.70;87.70;;;;;;4987859;28;20035;-63
2023/10/23 11:38:47;;;;;;;9.30;4.30;;;13.80;87.60;;;;;;4987140;28;20049;-63
2023/10/23 11:41:13;;;;;;;5.28;4.38;;;13.80;87.50;;;;;;4988578;28;20034;-63
2023/10/23 11:43:38;;;;;;;6.30;4.10;;;13.80;87.50;;;;;;4987937;28;20512;-62
2023/10/23 11:46:04;;;;;;;4.85;4.22;;;13.80;87.60;;;;;;4988427;28;20042;-61
2023/10/23 11:48:30;;;;;;;8.35;4.68;;;13.80;87.70;;;;;;4987157;28;20498;-63
2023/10/23 11:50:56;;;;;;;5.72;4.30;;;13.90;87.90;;;;;;4988017;28;20062;-62
2023/10/23 11:53:22;;;;;;;5.18;4.55;;;13.90;88.00;;;;;;4987570;28;20042;-62
2023/10/23 11:55:49;;;;;;;6.68;4.25;;;13.90;88.10;;;;;;4986676;28;20414;-63
2023/10/23 11:58:25;;;;;;;5.32;4.28;;;14.00;88.10;;;;;;4987903;28;20133;-62
2023/10/23 12:00:51;;;;;;;4.55;3.72;;;14.10;88.00;;;;;;4987639;28;20113;-62
2023/10/23 12:03:16;;;;;;;4.78;3.97;;;14.10;87.90;;;;;;4987869;28;20471;-63
2023/10/23 12:05:42;;;;;;;4.68;4.10;;;14.20;87.80;;;;;;4987332;28;20053;-63
2023/10/23 12:08:07;;;;;;;5.55;3.95;;;14.20;87.50;;;;;;4988420;28;20034;-63
2023/10/23 12:10:37;;;;;;;7.03;3.97;;;14.30;87.40;;;;;;4985692;28;20065;-63
2023/10/23 12:13:03;;;;;;;4.45;4.05;;;14.30;87.20;;;;;;4988215;28;20041;-60
2023/10/23 12:15:29;;;;;;;6.30;4.20;;;14.40;86.90;;;;;;4987786;28;20034;-62
2023/10/23 12:18:02;;;;;;;7.97;4.88;;;14.40;86.90;;;;;;4988148;28;20498;-63
2023/10/23 12:20:29;;;;;;;6.60;4.70;;;14.40;86.70;;;;;;4986824;28;20027;-63
2023/10/23 12:22:55;;;;;;;5.15;4.63;;;14.30;86.40;;;;;;4988127;28;20530;-62
2023/10/23 12:25:21;;;;;;;7.30;4.70;;;14.30;86.40;;;;;;4987830;28;20146;-63
2023/10/23 12:27:47;;;;;;;4.80;4.40;;;14.30;86.40;;;;;;4987852;28;20061;-62
2023/10/23 12:30:16;;;;;;;5.15;4.63;;;14.30;86.40;;;;;;4987951;28;20482;-63
2023/10/23 12:32:42;;;;;;;5.25;4.50;;;14.30;86.60;;;;;;4985792;28;20038;-62
2023/10/23 12:35:09;;;;;;;6.13;4.93;;;14.30;86.50;;;;;;4987066;28;20027;-62
2023/10/23 12:37:37;;;;;;;7.35;4.88;;;14.30;86.10;;;;;;4987199;28;20190;-62
2023/10/23 12:40:08;;;;;;;7.00;4.70;;;14.30;86.00;;;;;;4987352;28;20433;-61
2023/10/23 12:42:34;;;;;;;5.75;4.82;;;14.30;86.30;;;;;;4986855;28;20518;-63
2023/10/23 12:44:59;;;;;;;6.07;5.22;;;14.30;86.70;;;;;;4987531;28;20042;-62
2023/10/23 12:47:25;;;;;;;5.90;5.22;;;14.30;86.90;;;;;;4987073;28;20480;-63
2023/10/23 12:49:50;;;;;;;6.20;4.95;;;14.30;86.70;;;;;;4989683;28;20050;-63